»·PEaware :: SKW5466 KSFO-KPSP

SKW5466 :: KSFO-KPSP

FLIGHT INFORMATION

Flight Status: Arrived
Operator:
SkyWest Airlines
More flights by this operator :: More flights under this callsign
Pilot: Anonymous 10623 (10623)
Aircraft: CANADAIR CL-600 CRJ-700
(CRJ7)
More flights by this aircraft type
Origin: KSFO San Francisco Intl
United States
Destination: KPSP Palm Springs Intl
United States
More flights between these airports :: More routes between these airports
Route: SSTIK5 KAYEX LOSHN CLASN SIZLR3
File this flight plan on PilotEdge
Remarks: RMK / SIMBRIEF
Altitude:
(Current/Filed)
37,000ft
Speed:
(Current/Filed)
450kts
Departed: 16-Jan-22 06:03 PM
Arrived: 16-Jan-22 07:11 PM
Distance/Time
Traveled:
365nm/1:08
Distance/Time
To Go:
Arrived

Flight Plot

Page will automatically refresh every two minutes.

Flight plan parsing failed; only flown route is shown


Map Options




Map Legend


Flown Route
Filed Route
Departure Airport
Arrival Airport
Navaid (VOR, NDB)
Fix

Horizontal Profiles

Position Reports

Time Latitude Longitude Heading Altitude Ground
Speed
16-Jan-22 17:25 37.621506 -122.389361 174 13ft 0kts
16-Jan-22 17:26 37.621506 -122.389361 174 13ft 0kts
16-Jan-22 17:27 37.621506 -122.389361 174 13ft 0kts
16-Jan-22 17:28 37.621506 -122.389361 174 13ft 0kts
16-Jan-22 17:29 37.621506 -122.389361 174 13ft 0kts
16-Jan-22 17:30 37.621506 -122.389361 174 13ft 0kts
16-Jan-22 17:31 37.621506 -122.389361 174 13ft 0kts
16-Jan-22 17:32 37.621506 -122.389361 174 13ft 0kts
16-Jan-22 17:33 37.621506 -122.389361 174 13ft 0kts
16-Jan-22 17:34 37.621506 -122.389361 174 13ft 0kts
16-Jan-22 17:35 37.621506 -122.389361 174 13ft 0kts
16-Jan-22 17:36 37.621506 -122.389361 174 13ft 0kts
16-Jan-22 17:37 37.621506 -122.389361 174 13ft 0kts
16-Jan-22 17:38 37.621506 -122.389361 174 13ft 0kts
16-Jan-22 17:39 37.621506 -122.389361 174 13ft 0kts
16-Jan-22 17:40 37.621506 -122.389361 174 13ft 0kts
16-Jan-22 17:41 37.621506 -122.389361 174 13ft 0kts
16-Jan-22 17:42 37.621506 -122.389361 174 13ft 0kts
16-Jan-22 17:43 37.621506 -122.389361 174 13ft 0kts
16-Jan-22 17:44 37.621506 -122.389361 174 13ft 0kts
16-Jan-22 17:45 37.621506 -122.389361 174 13ft 0kts
16-Jan-22 17:46 37.621506 -122.389361 174 13ft 0kts
16-Jan-22 17:47 37.622257 -122.389462 173 10ft 3kts
16-Jan-22 17:48 37.622481 -122.390090 73 11ft 0kts
16-Jan-22 17:49 37.622481 -122.390090 73 11ft 0kts
16-Jan-22 17:50 37.622481 -122.390090 73 11ft 0kts
16-Jan-22 17:51 37.622481 -122.390090 73 11ft 0kts
16-Jan-22 17:52 37.622481 -122.390090 73 11ft 0kts
16-Jan-22 17:53 37.622481 -122.390090 73 11ft 0kts
16-Jan-22 17:54 37.622615 -122.389552 72 11ft 8kts
16-Jan-22 17:55 37.621029 -122.385123 125 15ft 14kts
16-Jan-22 17:56 37.619131 -122.380791 122 18ft 16kts
16-Jan-22 17:57 37.614421 -122.381052 207 12ft 20kts
16-Jan-22 17:58 37.609867 -122.384172 190 17ft 11kts
16-Jan-22 17:59 37.609143 -122.383479 131 18ft 0kts
16-Jan-22 18:00 37.609035 -122.383305 124 19ft 4kts
16-Jan-22 18:01 37.609719 -122.381725 27 18ft 14kts
16-Jan-22 18:02 37.645119 -122.361742 6 1652ft 198kts
16-Jan-22 18:03 37.702826 -122.380205 291 4459ft 258kts
16-Jan-22 18:04 37.665251 -122.440805 168 7954ft 268kts
16-Jan-22 18:05 37.592725 -122.431302 204 11361ft 281kts
16-Jan-22 18:06 37.510347 -122.453898 161 13358ft 336kts
16-Jan-22 18:07 37.438287 -122.378160 131 16703ft 348kts
16-Jan-22 18:08 37.373499 -122.284707 130 19915ft 361kts
16-Jan-22 18:09 37.308643 -122.185712 130 22828ft 373kts
16-Jan-22 18:10 37.238879 -122.086307 131 25312ft 384kts
16-Jan-22 18:11 37.170739 -121.981426 130 27494ft 393kts
16-Jan-22 18:12 37.100968 -121.873973 130 29373ft 402kts
16-Jan-22 18:13 37.048581 -121.793846 130 30588ft 408kts
16-Jan-22 18:14 36.987821 -121.701443 130 31865ft 412kts
16-Jan-22 18:15 36.915121 -121.590951 130 33145ft 414kts
16-Jan-22 18:16 36.841953 -121.480115 130 34413ft 413kts
16-Jan-22 18:17 36.802227 -121.420029 130 34996ft 411kts
16-Jan-22 18:18 36.728959 -121.309471 130 35860ft 413kts
16-Jan-22 18:19 36.655679 -121.199202 130 36543ft 416kts
16-Jan-22 18:20 36.581146 -121.087358 130 36839ft 422kts
16-Jan-22 18:21 36.505458 -120.976873 131 36865ft 419kts
16-Jan-22 18:22 36.432383 -120.864691 131 36866ft 415kts
16-Jan-22 18:23 36.358826 -120.755098 131 36869ft 412kts
16-Jan-22 18:24 36.285418 -120.645928 131 36885ft 414kts
16-Jan-22 18:25 36.210862 -120.535935 131 36875ft 419kts
16-Jan-22 18:26 36.136200 -120.424086 131 36872ft 422kts
16-Jan-22 18:27 36.060623 -120.312601 131 36885ft 425kts
16-Jan-22 18:28 35.984163 -120.200287 131 36884ft 427kts
16-Jan-22 18:29 35.907484 -120.087929 131 36874ft 428kts
16-Jan-22 18:30 35.835917 -119.971046 120 36888ft 431kts
16-Jan-22 18:31 35.785871 -119.835846 116 36892ft 434kts
16-Jan-22 18:32 35.735094 -119.700759 117 36895ft 434kts
16-Jan-22 18:33 35.684164 -119.566175 117 36899ft 434kts
16-Jan-22 18:34 35.618186 -119.443358 133 36908ft 430kts
16-Jan-22 18:35 35.536956 -119.336632 134 36920ft 429kts
16-Jan-22 18:36 35.456415 -119.227971 134 36920ft 431kts
16-Jan-22 18:37 35.375081 -119.119579 135 36925ft 431kts
16-Jan-22 18:38 35.294670 -119.010969 134 36931ft 432kts
16-Jan-22 18:39 35.213026 -118.902968 135 36934ft 432kts
16-Jan-22 18:40 35.131133 -118.795345 135 36942ft 432kts
16-Jan-22 18:41 35.049123 -118.688253 135 36962ft 432kts
16-Jan-22 18:42 34.968399 -118.580282 138 34678ft 420kts
16-Jan-22 18:43 34.890243 -118.478643 138 32476ft 404kts
16-Jan-22 18:44 34.813704 -118.379770 138 30305ft 400kts
16-Jan-22 18:45 34.741097 -118.276930 131 28200ft 401kts
16-Jan-22 18:46 34.673556 -118.169313 133 26123ft 401kts
16-Jan-22 18:47 34.604887 -118.064831 132 23993ft 391kts
16-Jan-22 18:48 34.548000 -117.952458 118 22020ft 380kts
16-Jan-22 18:49 34.504518 -117.841426 120 21083ft 350kts
16-Jan-22 18:50 34.461868 -117.739760 119 20159ft 330kts
16-Jan-22 18:51 34.422299 -117.640713 118 19259ft 325kts
16-Jan-22 18:52 34.380356 -117.539871 119 18443ft 352kts
16-Jan-22 18:53 34.334319 -117.428321 117 17607ft 386kts
16-Jan-22 18:54 34.284953 -117.308634 120 16580ft 407kts
16-Jan-22 18:55 34.229821 -117.193827 120 16013ft 383kts
16-Jan-22 18:56 34.178866 -117.084323 121 16039ft 367kts
16-Jan-22 18:57 34.129263 -116.978921 120 16032ft 355kts
16-Jan-22 18:58 34.080127 -116.874136 120 15322ft 369kts
16-Jan-22 18:59 34.029695 -116.763799 113 13822ft 361kts
16-Jan-22 19:00 34.002500 -116.659003 107 12366ft 298kts
16-Jan-22 19:01 33.979489 -116.571240 109 11231ft 253kts
16-Jan-22 19:02 33.941414 -116.508654 139 9921ft 228kts
16-Jan-22 19:03 33.892348 -116.462557 168 7799ft 224kts
16-Jan-22 19:04 33.844212 -116.418223 136 5763ft 219kts
16-Jan-22 19:05 33.800426 -116.368483 139 3818ft 212kts
16-Jan-22 19:06 33.756560 -116.386689 247 2829ft 162kts
16-Jan-22 19:07 33.762523 -116.436005 298 1647ft 147kts
16-Jan-22 19:08 33.789289 -116.470896 321 1256ft 138kts
16-Jan-22 19:09 33.819230 -116.498342 322 511ft 131kts
16-Jan-22 19:10 33.835253 -116.512612 322 461ft 18kts
16-Jan-22 19:11 33.834906 -116.514490 146 464ft 15kts
16-Jan-22 19:12 33.829908 -116.510012 143 444ft 26kts
16-Jan-22 19:13 33.824373 -116.504945 144 424ft 23kts
16-Jan-22 19:14 33.821483 -116.506419 261 419ft 3kts
16-Jan-22 19:15 33.821481 -116.506429 261 419ft 0kts
16-Jan-22 19:16 33.821481 -116.506429 261 419ft 0kts

Navigation Log

Ident Type
Flight plan parsing failed, navigation log unavailable